메인 페이지
METAR-TAF:

METAR-TAF

공항 :

Sharurah, 사우디아라비아

위도: 17-28N, 경도: 047-07E, 고도: 720m

현재 날씨관측

예보는 37분 전, 16:00시(UTC)에 발표되었습니다.
북동10kt
온도 37°C
습도 12%
기압 1008 hPa
시정 10km 이상
1500m 미만 상공 구름 및 적란운 없음

METAR: OESH 311600Z 05010KT CAVOK 37/03 Q1008 NOSIG

시각: 19:37 (16:37 UTC)

예보

예보는 5 시간 37분 전, 11:00시(UTC)에 발표되었습니다.
예보 대상 시간: 31일 12시부터 01일 18시까지 (UTC)
북동16kt
시정: 8000m
고도 4000ft 상공 구름 보통
일시적
31일 12시부터 31일 18시까지 (UTC)
시정: 4000m
날린먼지
전환 중
31일 18시부터 31일 20시까지 (UTC)
13kt

TAF: OESH 311100Z 3112/0118 04016KT 8000 SCT040 TEMPO 3112/3118 4000 BLDU BECMG 3118/3120 10013KT

4,000개 이상의 공항 관측 자료 및 예보 (METAR 및 TAF 보고).

지도상에서 검색 가능한 기상관측소가 노란 점과 빨간 점으로 표시되어 있습니다.

기상관측소 명을 보려면 표시 위로 마우스를 이동하세요.

날씨 관측과 예보를 보려면 클릭하세요.

지도 변경 : 확대하려면 엑스 표시가 있는 녹색 버튼, 축소하려면 빼기 표시가 있는 녹색 버튼, 다음 페이지의 지도를 보려면 녹색 화살표를 클릭하세요.


METAR-TAF: